Time;durP1;ratioP1;P1;durP2;ratioP2;P2;SDS_P1;SDS_P2;PMS_P1;PMS_P2;Temp;Humidity;BMP_temperature;BMP_pressure;BME280_temperature;BME280_humidity;BME280_pressure;Samples;Min_cycle;Max_cycle;Signal;HPM_P1;HPM_P2
2022/01/24 00:00:13;;;;;;;33.78;18.35;;;;;;;4.53;100.00;100693.91;4919359;29;20164;-83
2022/01/24 00:02:43;;;;;;;31.92;17.52;;;;;;;4.66;100.00;100696.41;4937096;29;20035;-83
2022/01/24 00:05:09;;;;;;;35.58;19.70;;;;;;;4.61;100.00;100707.16;4918622;29;20031;-82
2022/01/24 00:07:35;;;;;;;34.40;19.17;;;;;;;4.51;100.00;100704.41;4936242;29;20442;-83
2022/01/24 00:10:06;;;;;;;31.80;18.55;;;;;;;4.63;100.00;100697.47;4923552;29;20040;-83
2022/01/24 00:12:45;;;;;;;37.88;19.00;;;;;;;4.69;100.00;100709.19;4947288;29;20034;-82
2022/01/24 00:17:40;;;;;;;33.10;19.40;;;;;;;4.84;100.00;100720.19;4943398;29;20088;-83
2022/01/24 00:28:22;;;;;;;31.58;18.17;;;;;;;4.93;100.00;100714.31;4947227;29;20032;-83
2022/01/24 00:30:48;;;;;;;33.25;17.25;;;;;;;4.95;100.00;100712.44;4926163;29;20500;-82
2022/01/24 00:33:15;;;;;;;28.42;16.70;;;;;;;4.92;100.00;100701.41;4946446;29;20566;-83
2022/01/24 00:35:41;;;;;;;30.60;17.48;;;;;;;4.92;100.00;100707.47;4945129;29;20024;-82
2022/01/24 00:38:07;;;;;;;32.05;18.27;;;;;;;4.97;100.00;100704.47;4945724;29;20035;-82
2022/01/24 00:40:37;;;;;;;28.67;15.93;;;;;;;4.92;100.00;100707.47;4925877;29;20039;-82
2022/01/24 00:43:09;;;;;;;29.17;17.13;;;;;;;4.95;100.00;100699.41;4944153;29;20053;-82
2022/01/24 00:45:53;;;;;;;34.30;17.20;;;;;;;4.93;100.00;100708.28;4927398;29;20114;-82
2022/01/24 00:55:57;;;;;;;31.70;18.20;;;;;;;4.81;100.00;100705.63;4945682;29;20023;-82
2022/01/24 00:58:23;;;;;;;31.27;17.45;;;;;;;4.55;100.00;100711.03;4944471;29;20407;-83
2022/01/24 01:00:49;;;;;;;37.38;19.77;;;;;;;4.16;100.00;100714.78;4946918;29;20106;-82
2022/01/24 01:03:15;;;;;;;32.03;18.23;;;;;;;4.26;100.00;100718.38;4945918;28;20496;-82
2022/01/24 01:19:22;;;;;;;43.00;20.33;;;;;;;4.12;100.00;100711.56;4924023;29;20031;-82
2022/01/24 01:21:48;;;;;;;42.20;19.88;;;;;;;4.26;100.00;100700.16;4908233;29;20475;-82
2022/01/24 01:24:14;;;;;;;48.17;22.55;;;;;;;4.31;100.00;100700.66;4925212;29;20103;-82
2022/01/24 01:26:49;;;;;;;45.53;23.25;;;;;;;4.34;100.00;100697.84;4927114;29;20115;-83
2022/01/24 01:29:21;;;;;;;45.58;21.83;;;;;;;4.19;100.00;100693.78;4923803;29;20054;-82
2022/01/24 01:53:06;;;;;;;42.58;21.95;;;;;;;4.48;100.00;100691.63;4923695;29;20102;-83
2022/01/24 01:55:39;;;;;;;42.67;21.95;;;;;;;4.41;100.00;100680.00;4908412;29;20032;-82
2022/01/24 01:58:09;;;;;;;46.45;22.25;;;;;;;4.36;100.00;100690.78;4924078;29;20036;-82
2022/01/24 02:00:37;;;;;;;46.70;23.75;;;;;;;4.37;100.00;100694.19;4924578;29;20036;-82
2022/01/24 02:03:03;;;;;;;46.35;21.92;;;;;;;4.21;100.00;100691.88;4923281;29;20028;-82
2022/01/24 02:05:30;;;;;;;52.45;24.83;;;;;;;4.08;100.00;100691.97;4927241;29;20042;-82
2022/01/24 02:07:56;;;;;;;52.00;25.48;;;;;;;3.83;100.00;100684.16;4925729;29;20503;-81
2022/01/24 02:10:24;;;;;;;49.40;24.85;;;;;;;3.75;100.00;100686.47;4934448;29;20072;-81
2022/01/24 02:12:52;;;;;;;50.85;24.95;;;;;;;3.86;100.00;100694.31;4927423;29;20126;-80
2022/01/24 02:20:42;;;;;;;52.28;25.40;;;;;;;3.97;100.00;100695.34;4945222;29;20031;-79
2022/01/24 02:23:37;;;;;;;53.17;26.60;;;;;;;3.97;100.00;100696.16;4940484;29;20038;-80
2022/01/24 02:26:06;;;;;;;55.88;26.80;;;;;;;3.98;100.00;100709.97;4943727;29;20470;-79
2022/01/24 02:28:47;;;;;;;57.78;27.13;;;;;;;3.97;100.00;100697.94;4926752;29;20497;-81
2022/01/24 02:34:23;;;;;;;56.85;26.95;;;;;;;4.18;100.00;100708.53;4911596;29;20085;-80
2022/01/24 02:36:49;;;;;;;57.47;27.45;;;;;;;4.02;100.00;100702.78;4945440;29;20050;-80
2022/01/24 02:49:54;;;;;;;58.42;27.67;;;;;;;4.24;100.00;100694.25;4941546;29;20035;-80
2022/01/24 02:52:23;;;;;;;61.42;28.60;;;;;;;4.47;100.00;100696.94;4940337;29;20035;-80
2022/01/24 02:54:49;;;;;;;58.60;28.40;;;;;;;4.43;100.00;100699.75;4926419;29;20032;-80
2022/01/24 02:57:15;;;;;;;59.63;27.45;;;;;;;4.07;100.00;100701.50;4939846;29;20091;-79
2022/01/24 02:59:42;;;;;;;60.10;28.55;;;;;;;3.93;100.00;100696.47;4911124;29;20066;-79
2022/01/24 03:02:08;;;;;;;56.67;28.42;;;;;;;3.90;100.00;100688.91;4928881;29;20521;-80
2022/01/24 03:04:34;;;;;;;62.05;28.80;;;;;;;3.98;100.00;100702.19;4942540;29;20118;-80
2022/01/24 03:07:00;;;;;;;69.65;30.25;;;;;;;3.90;100.00;100696.69;4942835;29;20115;-79
2022/01/24 03:09:26;;;;;;;65.13;31.35;;;;;;;3.94;100.00;100695.56;4948386;29;20039;-79
2022/01/24 03:12:05;;;;;;;58.90;27.27;;;;;;;4.05;100.00;100693.00;4945973;29;20095;-79
2022/01/24 03:14:35;;;;;;;63.85;30.35;;;;;;;4.19;100.00;100686.78;4927114;29;20303;-80
2022/01/24 03:17:06;;;;;;;66.07;31.95;;;;;;;4.24;100.00;100686.47;4941503;29;20482;-80
2022/01/24 03:19:32;;;;;;;72.40;31.77;;;;;;;4.16;100.00;100691.41;4925804;29;20032;-80
2022/01/24 03:21:58;;;;;;;65.18;31.52;;;;;;;4.07;100.00;100679.91;4928323;29;20045;-80
2022/01/24 03:24:25;;;;;;;64.75;29.58;;;;;;;4.07;100.00;100685.91;4909887;29;20042;-79
2022/01/24 03:26:52;;;;;;;60.55;28.05;;;;;;;4.12;100.00;100670.81;4911642;29;20152;-79
2022/01/24 03:29:18;;;;;;;63.53;29.85;;;;;;;4.04;100.00;100675.75;4928585;29;20050;-79
2022/01/24 03:31:48;;;;;;;60.45;27.33;;;;;;;4.07;100.00;100675.53;4919248;29;20114;-80
2022/01/24 03:34:14;;;;;;;64.05;30.40;;;;;;;3.99;100.00;100680.47;4929511;29;20027;-79
2022/01/24 03:36:43;;;;;;;62.30;29.98;;;;;;;3.96;100.00;100672.88;4946029;29;20438;-80
2022/01/24 03:39:11;;;;;;;67.78;30.73;;;;;;;4.06;100.00;100673.88;4929305;29;20044;-80
2022/01/24 03:41:39;;;;;;;67.72;30.83;;;;;;;4.05;100.00;100674.81;4945904;29;20032;-79
2022/01/24 03:44:06;;;;;;;69.78;32.33;;;;;;;4.14;100.00;100675.91;4914285;29;20466;-80
2022/01/24 03:47:11;;;;;;;73.28;31.73;;;;;;;4.09;100.00;100678.84;4951171;29;20062;-79
2022/01/24 03:52:04;;;;;;;82.85;35.72;;;;;;;4.02;100.00;100662.03;4949433;29;20481;-80
2022/01/24 03:54:29;;;;;;;78.90;35.38;;;;;;;4.04;100.00;100665.34;4947730;29;20041;-80
2022/01/24 03:56:55;;;;;;;80.70;36.05;;;;;;;4.00;100.00;100656.94;4945888;29;20393;-79
2022/01/24 03:59:21;;;;;;;74.53;32.92;;;;;;;4.05;100.00;100667.00;4946328;29;20034;-80
2022/01/24 04:01:47;;;;;;;82.50;35.08;;;;;;;3.75;100.00;100667.44;4945919;29;20114;-80
2022/01/24 04:04:12;;;;;;;78.68;35.55;;;;;;;3.72;100.00;100668.50;4923373;29;20039;-80
2022/01/24 04:06:38;;;;;;;78.32;36.47;;;;;;;3.51;100.00;100660.47;4946398;29;20062;-79
2022/01/24 04:09:04;;;;;;;83.22;35.78;;;;;;;3.49;100.00;100665.75;4947254;29;20474;-80
2022/01/24 04:11:35;;;;;;;91.03;37.35;;;;;;;3.60;100.00;100666.78;4920271;29;20128;-79
2022/01/24 04:14:12;;;;;;;85.95;36.83;;;;;;;3.61;100.00;100671.03;4936561;29;20039;-80
2022/01/24 04:16:41;;;;;;;89.32;38.15;;;;;;;3.60;100.00;100677.16;4934609;29;20032;-80
2022/01/24 04:19:35;;;;;;;87.15;36.35;;;;;;;3.59;100.00;100654.75;4920224;29;20032;-79
2022/01/24 04:21:54;;;;;;;83.95;34.63;;;;;;;3.55;100.00;100660.16;4935726;29;20087;-80
2022/01/24 04:24:23;;;;;;;81.88;34.58;;;;;;;3.56;100.00;100666.16;4936839;29;20031;-80
2022/01/24 04:26:49;;;;;;;83.40;35.35;;;;;;;3.63;100.00;100669.16;4934274;29;20027;-80
2022/01/24 04:29:15;;;;;;;76.25;33.20;;;;;;;3.76;100.00;100680.34;4936998;29;20119;-80
2022/01/24 04:31:43;;;;;;;93.72;38.05;;;;;;;3.73;100.00;100657.16;4920079;29;20111;-81
2022/01/24 04:34:09;;;;;;;85.38;36.00;;;;;;;3.55;100.00;100665.34;4918530;29;20040;-80
2022/01/24 04:36:35;;;;;;;86.13;35.90;;;;;;;3.69;100.00;100676.50;4936692;29;20434;-80
2022/01/24 04:39:02;;;;;;;83.72;37.33;;;;;;;3.62;100.00;100675.28;4936481;29;20122;-80
2022/01/24 04:41:36;;;;;;;93.07;38.47;;;;;;;3.68;100.00;100669.66;4935823;29;20482;-80
2022/01/24 04:44:19;;;;;;;89.70;38.42;;;;;;;3.71;100.00;100674.63;4934440;29;20040;-79
2022/01/24 04:47:37;;;;;;;88.88;36.28;;;;;;;3.79;100.00;100677.53;4934248;29;20560;-79
2022/01/24 04:54:59;;;;;;;90.57;38.50;;;;;;;3.97;100.00;100680.56;4935646;29;20119;-80
2022/01/24 04:57:27;;;;;;;93.38;39.92;;;;;;;4.03;100.00;100689.69;4917043;29;20122;-79
2022/01/24 04:59:55;;;;;;;96.43;41.70;;;;;;;4.04;100.00;100686.16;4919546;29;20032;-80
2022/01/24 05:02:22;;;;;;;93.47;41.45;;;;;;;4.12;100.00;100683.81;4933147;29;20091;-80
2022/01/24 05:04:49;;;;;;;101.50;41.60;;;;;;;4.10;100.00;100685.69;4935976;29;20028;-80
2022/01/24 05:07:15;;;;;;;100.35;42.40;;;;;;;4.06;100.00;100686.84;4935267;29;20032;-80
2022/01/24 05:09:49;;;;;;;102.47;40.72;;;;;;;4.12;100.00;100689.00;4919002;29;20050;-81
2022/01/24 05:12:25;;;;;;;89.85;39.58;;;;;;;4.17;100.00;100680.88;4903516;29;20508;-80
2022/01/24 05:25:48;;;;;;;85.20;35.65;;;;;;;3.85;100.00;100707.44;4935014;29;20527;-80
2022/01/24 05:28:13;;;;;;;83.45;35.92;;;;;;;3.79;100.00;100706.09;4918420;29;20047;-82
2022/01/24 05:30:39;;;;;;;74.90;32.70;;;;;;;3.90;100.00;100707.09;4919141;29;20028;-81
2022/01/24 05:33:05;;;;;;;71.78;32.47;;;;;;;3.95;100.00;100718.81;4933254;29;20083;-82
2022/01/24 05:35:31;;;;;;;73.38;31.83;;;;;;;4.04;100.00;100711.31;4918561;29;20023;-81
2022/01/24 05:37:57;;;;;;;86.18;37.22;;;;;;;4.00;100.00;100711.50;4918923;29;20028;-82
2022/01/24 05:40:22;;;;;;;76.68;32.83;;;;;;;4.08;100.00;100700.56;4918422;29;20466;-82
2022/01/24 05:42:48;;;;;;;88.43;37.53;;;;;;;4.00;100.00;100701.13;4918738;29;20038;-81
2022/01/24 05:45:13;;;;;;;84.70;34.85;;;;;;;4.00;100.00;100698.50;4903196;29;20040;-81
2022/01/24 05:47:39;;;;;;;73.25;33.83;;;;;;;4.14;100.00;100694.09;4902685;29;20043;-81
2022/01/24 05:50:05;;;;;;;80.95;35.03;;;;;;;3.97;100.00;100690.13;4934660;29;20035;-82
2022/01/24 05:52:30;;;;;;;74.53;32.38;;;;;;;3.83;100.00;100712.72;4918857;29;20051;-82
2022/01/24 05:54:56;;;;;;;66.75;31.40;;;;;;;3.67;100.00;100725.13;4917481;29;20070;-80
2022/01/24 05:57:21;;;;;;;67.05;28.67;;;;;;;3.65;100.00;100721.81;4918514;29;20439;-80
2022/01/24 05:59:47;;;;;;;56.08;25.90;;;;;;;3.82;100.00;100721.47;4918279;29;20036;-80
2022/01/24 06:02:12;;;;;;;61.80;27.30;;;;;;;3.90;100.00;100712.28;4934145;29;20036;-79
2022/01/24 06:04:38;;;;;;;61.22;27.40;;;;;;;4.01;100.00;100725.34;4917872;29;20071;-79
2022/01/24 06:07:04;;;;;;;56.63;25.80;;;;;;;3.97;100.00;100722.13;4934676;29;20031;-79
2022/01/24 06:09:29;;;;;;;55.08;26.77;;;;;;;4.09;100.00;100714.41;4934946;29;20502;-79
2022/01/24 06:11:55;;;;;;;58.10;25.83;;;;;;;4.24;100.00;100722.84;4945047;29;20078;-79
2022/01/24 06:14:20;;;;;;;53.75;25.38;;;;;;;4.25;100.00;100703.72;4924821;29;20039;-79
2022/01/24 06:16:47;;;;;;;55.97;25.50;;;;;;;4.44;100.00;100716.22;4945913;29;20058;-80
2022/01/24 06:19:13;;;;;;;56.55;25.65;;;;;;;4.56;100.00;100717.06;4948535;29;20445;-81
2022/01/24 06:21:40;;;;;;;63.65;27.02;;;;;;;4.60;100.00;100712.44;4941784;29;20043;-80
2022/01/24 06:24:06;;;;;;;58.17;26.48;;;;;;;4.64;100.00;100704.31;4940259;29;20810;-80
2022/01/24 06:26:31;;;;;;;55.53;26.27;;;;;;;4.63;100.00;100697.47;4945773;29;20041;-81
2022/01/24 06:28:58;;;;;;;60.08;28.17;;;;;;;4.75;100.00;100700.09;4928097;29;20529;-81
2022/01/24 06:31:23;;;;;;;53.95;26.92;;;;;;;4.69;100.00;100701.38;4932064;29;20027;-82
2022/01/24 06:33:49;;;;;;;62.17;27.70;;;;;;;4.67;100.00;100708.47;4907652;29;20032;-80
2022/01/24 06:36:15;;;;;;;54.38;23.98;;;;;;;4.80;100.00;100703.16;4944122;29;20039;-79
2022/01/24 06:38:41;;;;;;;59.15;27.65;;;;;;;4.83;100.00;100705.53;4949620;29;20031;-80
2022/01/24 06:41:06;;;;;;;61.40;27.58;;;;;;;4.86;100.00;100698.34;4943887;29;20032;-80
2022/01/24 06:43:32;;;;;;;67.20;30.92;;;;;;;4.84;100.00;100715.84;4927747;29;20039;-80
2022/01/24 06:45:57;;;;;;;62.20;27.95;;;;;;;4.82;100.00;100703.88;4944129;29;20038;-80
2022/01/24 06:48:23;;;;;;;72.75;30.00;;;;;;;4.76;100.00;100694.75;4926375;29;20083;-80
2022/01/24 06:50:50;;;;;;;69.20;31.23;;;;;;;4.78;100.00;100711.06;4924435;29;20391;-80
2022/01/24 06:53:16;;;;;;;67.38;29.13;;;;;;;4.56;100.00;100704.88;4923418;29;20113;-80
2022/01/24 06:55:41;;;;;;;65.32;30.42;;;;;;;4.77;100.00;100719.00;4941076;29;20119;-79
2022/01/24 06:58:07;;;;;;;69.45;32.45;;;;;;;4.71;100.00;100715.91;4946791;29;20055;-79
2022/01/24 07:00:34;;;;;;;72.05;32.58;;;;;;;4.74;100.00;100725.25;4940410;29;20441;-80
2022/01/24 07:02:59;;;;;;;72.07;30.48;;;;;;;4.75;100.00;100719.13;4918827;29;20075;-79
2022/01/24 07:05:27;;;;;;;67.70;31.35;;;;;;;4.75;100.00;100720.91;4917191;29;20470;-80
2022/01/24 07:07:52;;;;;;;74.93;32.30;;;;;;;4.81;100.00;100728.25;4933657;29;20122;-80
2022/01/24 07:10:18;;;;;;;73.05;30.75;;;;;;;4.79;100.00;100711.91;4921894;29;20126;-79
2022/01/24 07:12:46;;;;;;;68.07;29.83;;;;;;;4.74;100.00;100714.03;4920128;29;20031;-79
2022/01/24 07:15:14;;;;;;;64.00;28.77;;;;;;;4.81;100.00;100715.22;4941446;29;20036;-80
2022/01/24 07:20:24;;;;;;;;;;;;;;;4.92;100.00;100723.06;4921489;29;20126;-80
2022/01/24 07:22:49;;;;;;;71.78;28.00;;;;;;;4.89;100.00;100720.69;4923034;29;20347;-80
2022/01/24 07:25:15;;;;;;;71.82;32.45;;;;;;;4.80;100.00;100718.78;4932439;29;20035;-80
2022/01/24 07:27:41;;;;;;;73.45;31.80;;;;;;;4.83;100.00;100723.75;4919596;29;20032;-79
2022/01/24 07:30:07;;;;;;;76.45;33.65;;;;;;;4.83;100.00;100723.75;4921169;29;20398;-80
2022/01/24 07:32:32;;;;;;;66.68;30.52;;;;;;;4.88;100.00;100721.63;4943247;29;20080;-80
2022/01/24 07:34:58;;;;;;;70.43;30.80;;;;;;;4.98;100.00;100727.81;4941125;29;20501;-80
2022/01/24 07:37:25;;;;;;;71.13;31.02;;;;;;;4.85;100.00;100721.84;4946870;29;20038;-81
2022/01/24 07:39:53;;;;;;;77.57;33.47;;;;;;;4.86;100.00;100718.31;4924965;29;20023;-81
2022/01/24 07:42:29;;;;;;;80.65;34.50;;;;;;;4.81;100.00;100715.22;4944444;29;20180;-80
2022/01/24 07:44:55;;;;;;;90.03;34.05;;;;;;;4.88;100.00;100719.03;4952453;29;20031;-80
2022/01/24 07:47:21;;;;;;;78.18;32.50;;;;;;;4.86;100.00;100713.94;4928225;29;20035;-82
2022/01/24 07:49:46;;;;;;;82.65;34.10;;;;;;;4.91;100.00;100713.56;4924738;29;20034;-83
2022/01/24 07:52:12;;;;;;;80.28;31.65;;;;;;;5.13;100.00;100725.81;4920495;29;20039;-80
2022/01/24 07:54:40;;;;;;;80.07;33.42;;;;;;;5.28;100.00;100709.97;4942850;29;20050;-82
2022/01/24 07:57:06;;;;;;;79.65;33.88;;;;;;;5.43;100.00;100715.75;4908250;29;20060;-83
2022/01/24 07:59:32;;;;;;;76.97;34.22;;;;;;;5.38;100.00;100717.88;4911162;29;20035;-82
2022/01/24 08:01:57;;;;;;;80.47;34.80;;;;;;;5.45;100.00;100711.25;4942523;29;20103;-82
2022/01/24 08:04:23;;;;;;;68.45;32.28;;;;;;;5.56;100.00;100723.41;4945187;29;20032;-82
2022/01/24 08:06:49;;;;;;;77.72;33.47;;;;;;;5.56;100.00;100708.63;4903856;29;20040;-81
2022/01/24 08:09:18;;;;;;;81.43;32.63;;;;;;;5.55;100.00;100729.59;4913581;29;20122;-82
2022/01/24 08:11:44;;;;;;;74.38;32.05;;;;;;;5.42;100.00;100734.94;4933509;29;20052;-82
2022/01/24 08:14:10;;;;;;;80.25;33.22;;;;;;;5.45;100.00;100724.25;4916893;29;20502;-82
2022/01/24 08:16:37;;;;;;;87.57;34.13;;;;;;;5.42;100.00;100737.53;4918987;29;20028;-83
2022/01/24 08:19:03;;;;;;;76.53;33.08;;;;;;;5.53;100.00;100734.09;4918477;29;20032;-83
2022/01/24 08:21:29;;;;;;;80.35;32.65;;;;;;;5.63;100.00;100729.81;4917210;29;20027;-85
2022/01/24 08:23:56;;;;;;;89.22;34.92;;;;;;;5.68;100.00;100734.66;4904362;29;20050;-85
2022/01/24 08:26:23;;;;;;;90.88;38.30;;;;;;;5.75;100.00;100732.41;4936122;29;20114;-84
2022/01/24 08:28:50;;;;;;;79.75;32.53;;;;;;;5.79;100.00;100731.19;4933788;29;20039;-84
2022/01/24 08:31:16;;;;;;;85.07;35.22;;;;;;;5.90;100.00;100722.56;4936645;29;20065;-83
2022/01/24 08:33:43;;;;;;;88.18;37.10;;;;;;;6.23;100.00;100732.09;4918876;29;20056;-83
2022/01/24 08:36:09;;;;;;;89.15;36.42;;;;;;;6.47;100.00;100731.03;4919712;29;20027;-86
2022/01/24 08:38:35;;;;;;;86.68;36.85;;;;;;;6.58;100.00;100737.97;4914510;29;20094;-84
2022/01/24 08:41:09;;;;;;;91.07;38.05;;;;;;;6.56;100.00;100725.03;4916374;29;20031;-84
2022/01/24 08:43:51;;;;;;;100.93;41.17;;;;;;;6.56;100.00;100729.44;4934286;29;20039;-84
2022/01/24 08:46:18;;;;;;;93.57;38.88;;;;;;;6.56;100.00;100742.50;4918496;29;20043;-83
2022/01/24 08:48:46;;;;;;;90.30;38.58;;;;;;;6.58;100.00;100737.97;4901919;29;20039;-83
2022/01/24 08:51:12;;;;;;;96.82;38.85;;;;;;;6.55;100.00;100730.41;4935325;29;20038;-84
2022/01/24 08:53:37;;;;;;;91.93;38.05;;;;;;;6.53;100.00;100738.34;4935126;29;20027;-83
2022/01/24 08:56:06;;;;;;;86.90;37.30;;;;;;;6.60;100.00;100738.69;4918632;29;20438;-84
2022/01/24 08:58:33;;;;;;;88.35;35.83;;;;;;;6.61;100.00;100732.50;4902951;29;20031;-84
2022/01/24 09:00:58;;;;;;;87.75;38.83;;;;;;;6.65;100.00;100738.31;4932025;29;20028;-83
2022/01/24 09:03:25;;;;;;;88.25;37.63;;;;;;;6.63;100.00;100740.22;4920151;29;20038;-82
2022/01/24 09:05:53;;;;;;;93.82;40.92;;;;;;;6.71;100.00;100741.25;4918347;29;20027;-82
2022/01/24 09:08:20;;;;;;;99.60;41.25;;;;;;;6.83;100.00;100747.22;4917610;29;20375;-83
2022/01/24 09:10:47;;;;;;;88.45;39.28;;;;;;;6.86;100.00;100739.13;4921672;29;20062;-83
2022/01/24 09:13:13;;;;;;;88.03;38.05;;;;;;;6.82;100.00;100750.78;4907000;29;20039;-85
2022/01/24 09:15:39;;;;;;;90.43;39.40;;;;;;;6.85;100.00;100752.28;4925512;29;20031;-83
2022/01/24 09:18:05;;;;;;;98.35;39.92;;;;;;;6.86;100.00;100751.34;4926593;29;20028;-84
2022/01/24 09:20:31;;;;;;;88.28;36.95;;;;;;;6.96;100.00;100756.63;4925034;29;20049;-83
2022/01/24 09:22:57;;;;;;;89.05;40.60;;;;;;;7.00;100.00;100751.03;4945371;28;20039;-83
2022/01/24 09:25:23;;;;;;;89.90;38.05;;;;;;;7.07;100.00;100758.34;4944983;29;20385;-83
2022/01/24 09:27:50;;;;;;;97.05;38.45;;;;;;;7.07;100.00;100758.34;4943812;29;20399;-83
2022/01/24 09:30:18;;;;;;;92.40;38.95;;;;;;;6.97;100.00;100753.91;4948640;29;20046;-82
2022/01/24 09:32:44;;;;;;;87.35;37.60;;;;;;;7.05;100.00;100760.25;4923719;29;20024;-86
2022/01/24 09:35:11;;;;;;;92.35;39.70;;;;;;;7.11;100.00;100767.59;4944983;29;20067;-83
2022/01/24 09:37:38;;;;;;;87.22;37.42;;;;;;;7.11;100.00;100750.13;4946913;29;20035;-85
2022/01/24 09:40:06;;;;;;;87.10;40.42;;;;;;;7.17;100.00;100759.22;4927355;29;20482;-85
2022/01/24 09:42:32;;;;;;;83.85;38.38;;;;;;;7.15;100.00;100761.97;4927128;29;20029;-84
2022/01/24 09:44:58;;;;;;;76.22;35.22;;;;;;;7.23;100.00;100768.34;4926506;29;20083;-84
2022/01/24 09:47:24;;;;;;;84.43;37.15;;;;;;;7.25;100.00;100762.00;4930913;29;20031;-84
2022/01/24 09:49:51;;;;;;;79.78;34.28;;;;;;;7.16;100.00;100760.19;4945637;29;20032;-84
2022/01/24 09:52:18;;;;;;;88.32;36.67;;;;;;;7.31;100.00;100759.84;4944167;29;20078;-83
2022/01/24 09:54:44;;;;;;;78.45;37.13;;;;;;;7.16;100.00;100762.78;4925296;29;21765;-83
2022/01/24 09:57:09;;;;;;;83.32;36.97;;;;;;;7.40;100.00;100764.28;4908675;29;20082;-84
2022/01/24 09:59:35;;;;;;;73.65;32.90;;;;;;;7.41;100.00;100765.94;4942261;29;20039;-84
2022/01/24 10:02:02;;;;;;;81.20;36.97;;;;;;;7.45;100.00;100761.28;4927900;29;20039;-84
2022/01/24 10:04:28;;;;;;;75.97;35.03;;;;;;;7.53;100.00;100762.28;4925781;29;20068;-85
2022/01/24 10:07:03;;;;;;;80.22;36.38;;;;;;;7.49;100.00;100766.13;4941742;29;20028;-82
2022/01/24 10:09:53;;;;;;;83.38;36.15;;;;;;;7.53;100.00;100761.44;4922193;29;20154;-84
2022/01/24 10:17:40;;;;;;;78.20;33.22;;;;;;;7.48;100.00;100756.63;4906044;29;20618;-83
2022/01/24 10:20:16;;;;;;;81.43;36.42;;;;;;;7.56;100.00;100756.78;4924657;29;20036;-82
2022/01/24 10:22:41;;;;;;;79.55;34.95;;;;;;;7.59;100.00;100753.09;4910590;29;20035;-85
2022/01/24 10:25:09;;;;;;;75.50;34.45;;;;;;;7.65;100.00;100762.16;4921887;29;20043;-85
2022/01/24 10:27:35;;;;;;;67.75;30.58;;;;;;;7.32;100.00;100759.69;4905225;29;20070;-84
2022/01/24 10:30:07;;;;;;;74.88;35.22;;;;;;;7.51;100.00;100758.97;4906952;29;20056;-83
2022/01/24 10:32:38;;;;;;;75.28;34.47;;;;;;;7.57;100.00;100765.47;4922400;29;20063;-83
2022/01/24 10:35:28;;;;;;;76.13;34.05;;;;;;;7.71;100.00;100753.81;4918789;29;20078;-83
2022/01/24 10:38:40;;;;;;;74.07;33.72;;;;;;;7.93;100.00;100763.22;4920358;29;20035;-83
2022/01/24 10:41:23;;;;;;;69.55;33.88;;;;;;;7.99;100.00;100769.69;4903937;29;20039;-83
2022/01/24 10:43:52;;;;;;;73.82;34.05;;;;;;;8.10;100.00;100755.66;4908801;29;20385;-84
2022/01/24 10:46:27;;;;;;;75.50;34.60;;;;;;;8.17;100.00;100761.19;4925847;29;20114;-83
2022/01/24 10:49:09;;;;;;;76.78;34.78;;;;;;;8.30;100.00;100756.53;4922532;29;20104;-83
2022/01/24 10:51:44;;;;;;;69.93;32.77;;;;;;;8.44;100.00;100765.75;4924605;29;20032;-83
2022/01/24 10:54:15;;;;;;;72.35;35.20;;;;;;;8.45;100.00;100759.56;4906187;29;20042;-83
2022/01/24 10:56:43;;;;;;;68.28;32.28;;;;;;;8.44;100.00;100750.84;4904062;29;20102;-84
2022/01/24 10:59:15;;;;;;;68.22;32.95;;;;;;;8.34;100.00;100743.97;4923181;29;20055;-83
2022/01/24 11:01:47;;;;;;;64.30;32.70;;;;;;;8.53;100.00;100748.44;4906296;29;20103;-82
2022/01/24 11:04:14;;;;;;;63.88;30.58;;;;;;;8.54;100.00;100742.22;4902234;29;20054;-83
2022/01/24 11:06:45;;;;;;;65.68;31.92;;;;;;;8.59;100.00;100755.72;4886271;29;20036;-84
2022/01/24 11:09:22;;;;;;;67.68;31.08;;;;;;;8.59;100.00;100750.47;4905304;29;20381;-84
2022/01/24 11:11:54;;;;;;;69.82;33.22;;;;;;;8.63;100.00;100744.00;4922702;29;20087;-83
2022/01/24 11:14:21;;;;;;;62.70;31.40;;;;;;;8.74;100.00;100757.91;4930323;29;20059;-82
2022/01/24 11:16:49;;;;;;;72.22;32.10;;;;;;;8.75;100.00;100767.41;4919858;29;20036;-83
2022/01/24 11:19:21;;;;;;;59.58;29.50;;;;;;;8.79;100.00;100768.78;4944995;29;20086;-83
2022/01/24 11:21:47;;;;;;;69.97;31.85;;;;;;;8.77;100.00;100763.72;4926761;29;20035;-83
2022/01/24 11:24:19;;;;;;;61.95;29.83;;;;;;;8.75;100.00;100754.31;4941563;29;20066;-81
2022/01/24 11:26:46;;;;;;;65.45;30.70;;;;;;;8.68;100.00;100754.91;4944223;29;20210;-84
2022/01/24 11:29:12;;;;;;;63.35;29.63;;;;;;;8.72;100.00;100760.66;4923864;29;20036;-84
2022/01/24 11:31:49;;;;;;;59.05;28.95;;;;;;;8.79;100.00;100753.91;4943905;29;20034;-84
2022/01/24 11:34:33;;;;;;;60.05;30.88;;;;;;;8.71;100.00;100756.38;4932633;29;20050;-85
2022/01/24 11:36:59;;;;;;;68.65;30.98;;;;;;;8.82;100.00;100752.78;4941760;29;20046;-84
2022/01/24 11:39:25;;;;;;;60.35;29.00;;;;;;;8.83;100.00;100751.81;4943172;29;20043;-84
2022/01/24 11:41:51;;;;;;;62.55;28.48;;;;;;;8.82;100.00;100750.16;4942599;29;20355;-84
2022/01/24 11:44:19;;;;;;;63.60;30.30;;;;;;;8.90;100.00;100760.78;4942946;29;20039;-85
2022/01/24 11:46:51;;;;;;;59.50;27.83;;;;;;;8.92;100.00;100760.63;4921688;29;20374;-85
2022/01/24 11:49:34;;;;;;;56.42;26.33;;;;;;;8.97;100.00;100754.00;4933786;29;20038;-84
2022/01/24 11:52:14;;;;;;;54.95;25.85;;;;;;;9.07;100.00;100750.56;4930344;29;20417;-84
2022/01/24 11:57:26;;;;;;;59.60;27.02;;;;;;;9.12;100.00;100750.94;4930023;29;20044;-83
2022/01/24 11:59:53;;;;;;;66.65;29.88;;;;;;;9.05;100.00;100755.09;4927549;29;20035;-84
2022/01/24 12:02:23;;;;;;;57.95;26.70;;;;;;;9.09;100.00;100756.47;4941822;29;20036;-83
2022/01/24 12:05:00;;;;;;;59.35;26.95;;;;;;;9.09;100.00;100746.00;4943854;29;20035;-84
2022/01/24 12:07:31;;;;;;;54.05;26.77;;;;;;;9.06;100.00;100747.09;4909997;29;20098;-84
2022/01/24 12:10:24;;;;;;;58.08;27.50;;;;;;;9.17;100.00;100751.34;4939193;29;20059;-83
2022/01/24 12:12:51;;;;;;;51.35;24.98;;;;;;;9.22;100.00;100753.53;4919294;29;20040;-84
2022/01/24 12:15:39;;;;;;;54.45;26.50;;;;;;;9.23;100.00;100750.75;4929141;29;20489;-84
2022/01/24 12:18:07;;;;;;;55.80;26.52;;;;;;;9.24;100.00;100744.56;4927922;29;20427;-84
2022/01/24 12:20:35;;;;;;;53.63;27.00;;;;;;;9.22;100.00;100751.72;4925971;29;20040;-84
2022/01/24 12:23:16;;;;;;;56.28;26.02;;;;;;;9.29;100.00;100741.50;4912627;29;20039;-84
2022/01/24 12:25:53;;;;;;;59.47;26.88;;;;;;;9.27;100.00;100744.28;4926852;29;20024;-84
2022/01/24 12:28:25;;;;;;;50.78;24.30;;;;;;;9.27;100.00;100740.81;4924809;29;20110;-85
2022/01/24 12:31:06;;;;;;;47.83;23.75;;;;;;;9.36;100.00;100733.88;4924599;29;20035;-85
2022/01/24 12:33:40;;;;;;;52.78;24.52;;;;;;;9.45;100.00;100740.91;4924826;29;20055;-84
2022/01/24 12:36:12;;;;;;;41.15;22.58;;;;;;;9.42;100.00;100725.44;4924275;29;20064;-84
2022/01/24 12:38:56;;;;;;;47.28;21.73;;;;;;;9.43;100.00;100737.56;4925159;29;20447;-84
2022/01/24 12:41:35;;;;;;;;;;;;;;;9.51;100.00;100723.75;4929038;29;20088;-84
2022/01/24 12:46:33;;;;;;;48.55;20.48;;;;;;;9.66;100.00;100716.22;4926695;29;20035;-84
2022/01/24 12:49:06;;;;;;;38.85;19.27;;;;;;;9.75;100.00;100731.06;4908262;29;20032;-84
2022/01/24 12:51:36;;;;;;;43.67;19.33;;;;;;;9.72;100.00;100726.94;4923651;29;20386;-84
2022/01/24 12:54:04;;;;;;;37.72;19.52;;;;;;;9.72;100.00;100718.25;4926874;29;20020;-84
2022/01/24 12:56:33;;;;;;;41.70;21.05;;;;;;;9.56;100.00;100717.09;4926550;29;20051;-84
2022/01/24 12:58:59;;;;;;;43.33;21.77;;;;;;;9.57;100.00;100715.31;4927196;29;20032;-84
2022/01/24 13:01:31;;;;;;;43.35;20.60;;;;;;;9.63;100.00;100711.25;4921528;29;20062;-84